createdAt,value
2019-05-15T00:01:08.953Z,1.70
2019-05-15T00:03:19.988Z,1.63
2019-05-15T00:05:30.813Z,1.90
2019-05-15T00:07:41.759Z,1.70
2019-05-15T00:09:54.636Z,1.97
2019-05-15T00:12:05.487Z,1.97
2019-05-15T00:16:48.202Z,1.80
2019-05-15T00:18:59.282Z,1.77
2019-05-15T00:21:10.161Z,1.80
2019-05-15T00:23:20.996Z,1.80
2019-05-15T00:25:31.859Z,1.57
2019-05-15T00:27:42.817Z,1.70
2019-05-15T00:29:53.762Z,1.63
2019-05-15T00:32:04.607Z,1.60
2019-05-15T00:34:15.556Z,1.80
2019-05-15T00:36:28.513Z,1.90
2019-05-15T00:38:39.304Z,1.90
2019-05-15T00:40:50.321Z,1.90
2019-05-15T00:43:01.183Z,2.00
2019-05-15T00:45:12.323Z,1.90
2019-05-15T00:47:23.198Z,2.27
2019-05-15T00:49:34.025Z,1.77
2019-05-15T00:51:44.897Z,1.87
2019-05-15T00:53:56.015Z,2.00
2019-05-15T00:56:08.832Z,1.90
2019-05-15T00:58:20.122Z,2.03
2019-05-15T01:00:41.844Z,1.90
2019-05-15T01:02:52.716Z,1.97
2019-05-15T01:05:05.453Z,1.90
2019-05-15T01:07:18.670Z,1.90
2019-05-15T01:09:29.317Z,2.20
2019-05-15T01:11:40.277Z,1.83
2019-05-15T01:13:51.148Z,1.93
2019-05-15T01:16:02.181Z,1.90
2019-05-15T01:18:13.047Z,1.77
2019-05-15T01:20:24.215Z,2.03
2019-05-15T01:22:35.159Z,2.10
2019-05-15T01:24:48.383Z,2.00
2019-05-15T01:26:58.769Z,1.97
2019-05-15T01:29:09.630Z,1.70
2019-05-15T01:31:20.490Z,1.87
2019-05-15T01:33:31.447Z,2.27
2019-05-15T01:35:42.370Z,2.00
2019-05-15T01:37:53.235Z,1.97
2019-05-15T01:40:05.604Z,1.90
2019-05-15T01:42:18.462Z,1.90
2019-05-15T01:44:29.188Z,2.00
2019-05-15T01:49:10.629Z,2.03
2019-05-15T01:51:21.489Z,1.80
2019-05-15T01:56:02.679Z,1.80
2019-05-15T01:58:13.530Z,2.00
2019-05-15T02:00:24.492Z,2.10
2019-05-15T02:02:35.334Z,1.53
2019-05-15T02:04:48.498Z,2.10
2019-05-15T02:06:59.049Z,2.13
2019-05-15T02:09:09.891Z,1.70
2019-05-15T02:11:20.724Z,2.27
2019-05-15T02:13:31.560Z,2.10
2019-05-15T02:15:42.415Z,2.10
2019-05-15T02:17:53.256Z,2.10
2019-05-15T02:20:08.243Z,2.20
2019-05-15T02:22:19.094Z,2.43
2019-05-15T02:24:30.070Z,2.13
2019-05-15T02:26:40.923Z,1.83
2019-05-15T02:28:51.761Z,2.10
2019-05-15T02:31:02.728Z,2.40
2019-05-15T02:33:13.568Z,2.43
2019-05-15T02:35:24.442Z,2.50
2019-05-15T02:37:35.281Z,2.43
2019-05-15T02:39:49.337Z,2.50
2019-05-15T02:41:59.607Z,2.50
2019-05-15T02:44:11.013Z,2.43
2019-05-15T02:46:22.021Z,2.33
2019-05-15T02:48:32.858Z,2.57
2019-05-15T02:50:43.734Z,2.50
2019-05-15T02:52:54.573Z,2.50
2019-05-15T02:55:08.931Z,2.70
2019-05-15T02:57:19.271Z,2.60
2019-05-15T02:59:30.258Z,2.50
2019-05-15T03:01:41.156Z,2.57
2019-05-15T03:03:52.110Z,2.50
2019-05-15T03:06:03.010Z,2.23
2019-05-15T03:08:13.848Z,2.53
2019-05-15T03:10:24.748Z,2.60
2019-05-15T03:12:35.578Z,2.77
2019-05-15T03:14:49.104Z,2.73
2019-05-15T03:16:59.733Z,2.63
2019-05-15T03:19:11.070Z,2.67
2019-05-15T03:21:22.052Z,2.53
2019-05-15T03:23:32.870Z,2.63
2019-05-15T03:25:43.725Z,2.67
2019-05-15T03:27:54.678Z,2.70
2019-05-15T03:30:06.014Z,2.70
2019-05-15T03:32:27.830Z,2.70
2019-05-15T03:34:37.441Z,2.87
2019-05-15T03:36:45.110Z,3.03
2019-05-15T03:38:55.262Z,3.03
2019-05-15T03:41:09.897Z,2.57
2019-05-15T03:43:19.461Z,2.97
2019-05-15T03:45:30.428Z,2.77
2019-05-15T03:47:41.398Z,3.37
2019-05-15T03:49:52.236Z,2.93
2019-05-15T03:52:03.201Z,2.77
2019-05-15T03:54:14.147Z,2.77
2019-05-15T03:56:25.073Z,4.83
2019-05-15T03:58:39.729Z,5.03
2019-05-15T04:00:49.775Z,3.53
2019-05-15T04:03:01.080Z,3.10
2019-05-15T04:05:12.422Z,2.90
2019-05-15T04:07:23.466Z,2.83
2019-05-15T04:09:34.322Z,2.83
2019-05-15T04:11:45.270Z,2.90
2019-05-15T04:13:59.208Z,3.30
2019-05-15T04:16:10.348Z,3.00
2019-05-15T04:18:21.625Z,2.87
2019-05-15T04:20:32.483Z,2.70
2019-05-15T04:22:43.347Z,2.77
2019-05-15T04:24:54.380Z,2.63
2019-05-15T04:27:10.168Z,2.70
2019-05-15T04:29:19.617Z,2.90
2019-05-15T04:31:49.826Z,2.73
2019-05-15T04:33:43.322Z,2.83
2019-05-15T04:35:54.262Z,2.70
2019-05-15T04:38:05.228Z,2.60
2019-05-15T04:40:19.196Z,2.53
2019-05-15T04:42:30.086Z,2.53
2019-05-15T04:44:41.109Z,2.67
2019-05-15T04:46:51.944Z,2.73
2019-05-15T04:49:02.910Z,2.23
2019-05-15T04:51:13.835Z,2.50
2019-05-15T04:53:24.700Z,3.20
2019-05-15T04:55:35.653Z,2.63
2019-05-15T04:57:49.940Z,2.60
2019-05-15T04:59:59.270Z,2.63
2019-05-15T05:02:17.357Z,2.90
2019-05-15T05:04:22.890Z,2.80
2019-05-15T05:06:34.025Z,2.90
2019-05-15T05:08:45.066Z,2.97
2019-05-15T05:10:58.871Z,3.50
2019-05-15T05:13:09.097Z,3.00
2019-05-15T05:15:19.989Z,3.10
2019-05-15T05:17:30.830Z,3.60
2019-05-15T05:19:41.849Z,3.30
2019-05-15T05:21:52.800Z,2.80
2019-05-15T05:24:03.730Z,3.27
2019-05-15T05:26:14.611Z,3.73
2019-05-15T05:28:25.573Z,3.40
2019-05-15T05:30:38.499Z,3.90
2019-05-15T05:32:49.261Z,3.67
2019-05-15T05:35:00.231Z,3.30
2019-05-15T05:37:11.168Z,3.53
2019-05-15T05:39:22.117Z,3.77
2019-05-15T05:41:32.966Z,3.40
2019-05-15T05:43:43.919Z,2.80
2019-05-15T05:45:54.768Z,2.77
2019-05-15T05:48:05.632Z,3.37
2019-05-15T05:50:43.683Z,2.80
2019-05-15T05:52:52.793Z,2.83
2019-05-15T05:55:04.927Z,2.73
2019-05-15T05:57:15.817Z,2.77
2019-05-15T05:59:28.423Z,2.03
2019-05-15T06:01:44.023Z,2.50
2019-05-15T06:03:52.147Z,1.97
2019-05-15T06:06:03.088Z,2.00
2019-05-15T06:08:13.941Z,2.00
2019-05-15T06:10:24.898Z,2.00
2019-05-15T06:12:38.568Z,1.70
2019-05-15T06:14:48.646Z,1.70
2019-05-15T06:16:59.473Z,2.10
2019-05-15T06:19:10.368Z,1.80
2019-05-15T06:21:21.218Z,1.60
2019-05-15T06:23:35.178Z,1.70
2019-05-15T06:25:44.888Z,1.80
2019-05-15T06:27:58.211Z,1.70
2019-05-15T06:30:14.712Z,1.63
2019-05-15T06:32:21.775Z,1.63
2019-05-15T06:34:32.609Z,1.87
2019-05-15T06:36:43.455Z,1.50
2019-05-15T06:38:54.344Z,1.77
2019-05-15T06:41:05.385Z,1.57
2019-05-15T06:43:19.224Z,1.83
2019-05-15T06:45:29.509Z,1.43
2019-05-15T06:47:40.481Z,1.43
2019-05-15T06:49:51.326Z,1.30
2019-05-15T06:52:02.162Z,1.70
2019-05-15T06:54:13.020Z,1.50
2019-05-15T06:56:23.858Z,1.50
2019-05-15T06:58:34.719Z,1.80
2019-05-15T07:00:48.423Z,1.60
2019-05-15T07:02:58.501Z,1.47
2019-05-15T07:05:09.492Z,1.73
2019-05-15T07:07:20.533Z,1.60
2019-05-15T07:09:32.208Z,1.30
2019-05-15T07:11:43.063Z,1.40
2019-05-15T07:13:54.033Z,1.40
2019-05-15T07:16:07.889Z,1.50
2019-05-15T07:18:19.815Z,1.70
2019-05-15T07:20:31.017Z,1.33
2019-05-15T07:22:41.855Z,1.47
2019-05-15T07:24:52.720Z,1.40
2019-05-15T07:27:03.669Z,1.40
2019-05-15T07:29:14.553Z,1.60
2019-05-15T07:31:25.391Z,1.57
2019-05-15T07:33:42.567Z,1.33
2019-05-15T07:35:49.770Z,1.30
2019-05-15T07:38:00.770Z,1.37
2019-05-15T07:40:12.446Z,1.60
2019-05-15T07:42:23.277Z,1.20
2019-05-15T07:44:34.132Z,1.40
2019-05-15T07:46:45.094Z,1.37
2019-05-15T07:48:58.253Z,1.30
2019-05-15T07:51:11.557Z,1.30
2019-05-15T07:53:21.573Z,1.10
2019-05-15T07:55:32.516Z,1.10
2019-05-15T07:57:43.393Z,1.77
2019-05-15T07:59:54.273Z,1.50
2019-05-15T08:02:05.241Z,1.40
2019-05-15T08:04:26.231Z,1.00
2019-05-15T08:06:29.113Z,1.97
2019-05-15T08:08:40.158Z,1.43
2019-05-15T08:10:51.052Z,1.50
2019-05-15T08:13:01.968Z,1.40
2019-05-15T08:15:13.769Z,1.20
2019-05-15T08:17:24.621Z,1.20
2019-05-15T08:19:38.206Z,1.40
2019-05-15T08:21:51.702Z,1.23
2019-05-15T08:26:33.611Z,1.20
2019-05-15T08:28:44.565Z,1.53
2019-05-15T08:30:55.517Z,1.70
2019-05-15T08:33:08.541Z,1.50
2019-05-15T08:35:19.509Z,1.50
2019-05-15T08:37:30.471Z,1.50
2019-05-15T08:39:41.307Z,1.30
2019-05-15T08:41:52.264Z,1.20
2019-05-15T08:44:03.364Z,1.23
2019-05-15T08:46:14.380Z,1.70
2019-05-15T08:48:27.628Z,1.50
2019-05-15T08:50:39.024Z,1.47
2019-05-15T08:52:50.001Z,1.40
2019-05-15T08:55:01.038Z,1.43
2019-05-15T08:57:11.903Z,1.47
2019-05-15T08:59:22.755Z,1.57
2019-05-15T09:01:33.594Z,1.53
2019-05-15T09:03:44.459Z,1.60
2019-05-15T09:05:55.315Z,2.00
2019-05-15T09:08:09.109Z,1.80
2019-05-15T09:10:19.166Z,1.27
2019-05-15T09:12:30.119Z,1.70
2019-05-15T09:14:40.961Z,1.70
2019-05-15T09:16:51.930Z,1.53
2019-05-15T09:19:02.792Z,1.83
2019-05-15T09:21:13.653Z,1.50
2019-05-15T09:23:24.525Z,1.40
2019-05-15T09:25:35.474Z,1.77
2019-05-15T09:27:48.664Z,1.63
2019-05-15T09:29:59.309Z,1.80
2019-05-15T09:32:12.400Z,2.63
2019-05-15T09:34:23.208Z,1.50
2019-05-15T09:36:34.081Z,1.67
2019-05-15T09:38:44.929Z,1.47
2019-05-15T09:40:58.287Z,1.80
2019-05-15T09:43:10.823Z,1.70
2019-05-15T09:45:21.631Z,1.67
2019-05-15T09:47:32.600Z,1.70
2019-05-15T09:49:43.469Z,1.50
2019-05-15T09:51:54.307Z,1.27
2019-05-15T09:54:05.266Z,1.30
2019-05-15T09:56:18.499Z,1.40
2019-05-15T09:58:30.303Z,1.97
2019-05-15T10:00:41.320Z,1.67
2019-05-15T10:02:52.250Z,1.90
2019-05-15T10:05:10.434Z,1.67
2019-05-15T10:07:19.273Z,1.67
2019-05-15T10:09:30.366Z,1.93
2019-05-15T10:11:41.312Z,1.60
2019-05-15T10:13:52.379Z,1.70
2019-05-15T10:16:03.332Z,1.93
2019-05-15T10:18:14.203Z,1.50
2019-05-15T10:20:25.079Z,1.27
2019-05-15T10:22:36.149Z,1.50
2019-05-15T10:24:50.902Z,1.40
2019-05-15T10:26:59.774Z,1.73
2019-05-15T10:29:10.739Z,1.63
2019-05-15T10:31:21.710Z,2.03
2019-05-15T10:33:32.673Z,1.60
2019-05-15T10:35:43.519Z,1.80
2019-05-15T10:37:54.357Z,1.50
2019-05-15T10:40:08.925Z,2.17
2019-05-15T10:42:19.506Z,1.37
2019-05-15T10:44:30.401Z,2.00
2019-05-15T10:46:41.293Z,1.50
2019-05-15T10:48:52.240Z,1.60
2019-05-15T10:51:07.233Z,1.80
2019-05-15T10:53:18.887Z,1.60
2019-05-15T10:55:29.661Z,1.67
2019-05-15T10:57:43.719Z,1.70
2019-05-15T10:59:53.398Z,1.67
2019-05-15T11:02:04.323Z,1.77
2019-05-15T11:04:15.250Z,1.60
2019-05-15T11:06:26.192Z,1.37
2019-05-15T11:08:40.217Z,1.70
2019-05-15T11:10:50.321Z,1.20
2019-05-15T11:13:01.161Z,1.30
2019-05-15T11:15:12.332Z,1.40
2019-05-15T11:17:23.279Z,1.80
2019-05-15T11:19:36.383Z,1.57
2019-05-15T11:21:48.561Z,1.67
2019-05-15T11:23:59.606Z,1.40
2019-05-15T11:26:10.665Z,1.70
2019-05-15T11:28:21.527Z,1.50
2019-05-15T11:30:32.498Z,2.10
2019-05-15T11:32:43.312Z,1.80
2019-05-15T11:34:54.770Z,1.63
2019-05-15T11:37:05.730Z,1.97
2019-05-15T11:39:18.261Z,1.80
2019-05-15T11:41:29.706Z,1.70
2019-05-15T11:43:40.640Z,1.67
2019-05-15T11:45:51.500Z,1.60
2019-05-15T11:48:02.689Z,1.57
2019-05-15T11:50:13.644Z,1.50
2019-05-15T11:52:24.516Z,1.60
2019-05-15T11:54:35.455Z,1.50
2019-05-15T11:56:48.923Z,1.43
2019-05-15T11:58:59.049Z,1.57
2019-05-15T12:01:10.049Z,1.43
2019-05-15T12:03:24.627Z,1.30
2019-05-15T12:05:33.828Z,1.20
2019-05-15T12:07:47.770Z,1.50
2019-05-15T12:09:58.140Z,1.60
2019-05-15T12:12:09.237Z,1.57
2019-05-15T12:14:20.077Z,1.73
2019-05-15T12:16:30.928Z,1.63
2019-05-15T12:18:41.780Z,1.40
2019-05-15T12:20:52.677Z,2.27
2019-05-15T12:23:03.612Z,1.40
2019-05-15T12:25:14.660Z,1.53
2019-05-15T12:27:28.148Z,2.07
2019-05-15T12:29:39.751Z,1.80
2019-05-15T12:31:51.031Z,1.43
2019-05-15T12:34:01.982Z,1.30
2019-05-15T12:36:12.794Z,1.30
2019-05-15T12:38:23.756Z,1.53
2019-05-15T13:00:29.983Z,1.47
2019-05-15T13:02:40.818Z,1.70
2019-05-15T13:04:51.682Z,1.50
2019-05-15T13:07:12.715Z,1.33
2019-05-15T13:09:15.704Z,1.77
2019-05-15T13:11:28.453Z,1.30
2019-05-15T13:13:39.540Z,1.60
2019-05-15T13:15:50.403Z,1.40
2019-05-15T13:18:01.254Z,1.40
2019-05-15T13:20:12.247Z,1.50
2019-05-15T13:22:24.768Z,1.30
2019-05-15T13:24:35.834Z,1.30
2019-05-15T13:26:47.662Z,1.50
2019-05-15T13:28:58.660Z,1.40
2019-05-15T13:31:09.601Z,1.37
2019-05-15T13:33:20.479Z,1.37
2019-05-15T13:35:31.351Z,1.27
2019-05-15T13:37:42.317Z,1.50
2019-05-15T13:39:53.178Z,1.70
2019-05-15T13:42:04.069Z,1.60
2019-05-15T13:44:14.990Z,1.20
2019-05-15T13:46:25.851Z,1.43
2019-05-15T13:48:38.562Z,1.50
2019-05-15T13:50:49.496Z,1.67
2019-05-15T13:53:00.333Z,1.70
2019-05-15T13:55:11.278Z,1.10
2019-05-15T13:57:22.109Z,1.50
2019-05-15T13:59:33.078Z,1.10
2019-05-15T14:01:43.975Z,1.40
2019-05-15T14:03:54.925Z,1.57
2019-05-15T14:06:05.798Z,1.80
2019-05-15T14:08:18.007Z,1.80
2019-05-15T14:10:29.004Z,1.43
2019-05-15T14:12:39.847Z,1.33
2019-05-15T14:14:50.680Z,1.30
2019-05-15T14:17:01.631Z,1.70
2019-05-15T14:19:12.496Z,1.20
2019-05-15T14:21:23.356Z,1.53
2019-05-15T14:23:34.286Z,1.50
2019-05-15T14:25:45.238Z,1.47
2019-05-15T14:27:56.089Z,1.47
2019-05-15T14:30:09.333Z,1.60
2019-05-15T14:32:34.437Z,1.40
2019-05-15T14:34:32.960Z,1.30
2019-05-15T14:36:43.830Z,1.20
2019-05-15T14:38:54.676Z,1.40
2019-05-15T14:41:05.902Z,1.60
2019-05-15T14:43:18.543Z,1.20
2019-05-15T14:45:29.616Z,1.30
2019-05-15T14:47:40.587Z,1.10
2019-05-15T14:49:51.530Z,1.30
2019-05-15T14:52:08.239Z,1.30
2019-05-15T14:54:18.186Z,1.30
2019-05-15T14:56:28.754Z,1.50
2019-05-15T14:58:39.701Z,1.53
2019-05-15T15:00:50.579Z,1.47
2019-05-15T15:03:01.587Z,1.43
2019-05-15T15:05:12.836Z,1.57
2019-05-15T15:07:24.096Z,1.60
2019-05-15T15:09:34.950Z,1.43
2019-05-15T15:11:48.212Z,1.47
2019-05-15T15:13:58.571Z,1.90
2019-05-15T15:16:09.416Z,1.57
2019-05-15T15:18:20.299Z,1.57
2019-05-15T15:20:31.231Z,1.20
2019-05-15T15:22:42.203Z,1.87
2019-05-15T15:24:53.048Z,1.77
2019-05-15T15:27:04.016Z,1.53
2019-05-15T15:29:15.179Z,1.60
2019-05-15T15:31:28.713Z,1.50
2019-05-15T15:33:39.346Z,1.50
2019-05-15T15:35:50.264Z,1.50
2019-05-15T15:38:01.352Z,1.73
2019-05-15T15:40:12.613Z,1.40
2019-05-15T15:42:23.463Z,1.93
2019-05-15T15:44:34.321Z,1.57
2019-05-15T15:46:45.273Z,1.30
2019-05-15T15:48:56.164Z,1.97
2019-05-15T15:51:09.323Z,2.40
2019-05-15T15:53:20.282Z,2.00
2019-05-15T15:55:31.136Z,1.43
2019-05-15T15:57:42.063Z,1.43
2019-05-15T15:59:52.920Z,1.30
2019-05-15T16:02:03.994Z,1.83
2019-05-15T16:04:14.875Z,1.90
2019-05-15T16:06:25.798Z,1.73
2019-05-15T16:08:51.650Z,1.60
2019-05-15T16:10:49.421Z,1.80
2019-05-15T16:13:00.558Z,1.80
2019-05-15T16:15:11.619Z,1.80
2019-05-15T16:17:22.598Z,1.77
2019-05-15T16:19:33.567Z,1.80
2019-05-15T16:21:44.456Z,2.03
2019-05-15T16:23:55.294Z,1.47
2019-05-15T16:26:06.167Z,1.90
2019-05-15T16:28:18.897Z,1.70
2019-05-15T16:30:29.878Z,1.90
2019-05-15T16:32:40.968Z,1.60
2019-05-15T16:34:52.487Z,1.73
2019-05-15T16:37:03.479Z,1.80
2019-05-15T16:39:14.361Z,1.60
2019-05-15T16:41:25.202Z,1.50
2019-05-15T16:43:37.858Z,1.77
2019-05-15T16:45:52.018Z,1.90
2019-05-15T16:48:01.694Z,1.80
2019-05-15T16:50:12.643Z,1.77
2019-05-15T16:52:23.630Z,1.40
2019-05-15T16:54:34.511Z,1.40
2019-05-15T16:56:48.549Z,1.63
2019-05-15T16:58:59.700Z,1.40
2019-05-15T17:01:10.705Z,1.57
2019-05-15T17:03:21.538Z,1.30
2019-05-15T17:05:32.486Z,1.33
2019-05-15T17:07:43.363Z,1.60
2019-05-15T17:09:54.196Z,1.33
2019-05-15T17:12:05.071Z,1.33
2019-05-15T17:14:16.011Z,1.07
2019-05-15T17:16:26.881Z,1.03
2019-05-15T17:18:38.453Z,1.17
2019-05-15T17:20:49.451Z,1.20
2019-05-15T17:23:00.433Z,1.17
2019-05-15T17:25:11.702Z,1.07
2019-05-15T17:27:22.705Z,0.80
2019-05-15T17:29:33.687Z,0.90
2019-05-15T17:31:44.692Z,1.20
2019-05-15T17:33:58.044Z,0.87
2019-05-15T17:36:08.291Z,1.00
2019-05-15T17:38:19.384Z,1.40
2019-05-15T17:40:30.242Z,1.20
2019-05-15T17:42:41.196Z,1.00
2019-05-15T17:44:52.051Z,1.10
2019-05-15T17:47:03.038Z,0.80
2019-05-15T17:49:15.436Z,0.80
2019-05-15T17:51:27.703Z,1.00
2019-05-15T17:53:38.653Z,0.93
2019-05-15T17:55:49.494Z,0.97
2019-05-15T17:58:01.253Z,0.90
2019-05-15T18:00:13.037Z,0.90
2019-05-15T18:02:24.108Z,1.00
2019-05-15T18:04:35.062Z,1.00
2019-05-15T18:06:48.274Z,1.30
2019-05-15T18:08:59.427Z,1.20
2019-05-15T18:11:10.467Z,1.90
2019-05-15T18:13:21.382Z,2.07
2019-05-15T18:15:32.332Z,1.80
2019-05-15T18:17:43.386Z,1.57
2019-05-15T18:19:54.524Z,1.23
2019-05-15T18:22:05.527Z,1.60
2019-05-15T18:24:18.463Z,1.47
2019-05-15T18:26:29.399Z,1.10
2019-05-15T18:28:40.365Z,1.70
2019-05-15T18:30:51.390Z,1.20
2019-05-15T18:33:02.394Z,1.73
2019-05-15T18:35:13.346Z,1.50
2019-05-15T18:37:24.209Z,1.30
2019-05-15T18:39:35.192Z,1.70
2019-05-15T18:41:48.351Z,1.47
2019-05-15T18:43:58.840Z,1.40
2019-05-15T18:46:09.817Z,1.50
2019-05-15T18:48:20.812Z,1.33
2019-05-15T18:50:31.773Z,1.43
2019-05-15T18:52:42.639Z,1.47
2019-05-15T18:54:53.558Z,1.23
2019-05-15T18:57:04.740Z,1.20
2019-05-15T18:59:17.736Z,1.00
2019-05-15T19:01:28.574Z,1.00
2019-05-15T19:03:39.598Z,1.30
2019-05-15T19:05:50.469Z,1.07
2019-05-15T19:08:01.352Z,1.07
2019-05-15T19:10:15.450Z,1.30
2019-05-15T19:12:28.307Z,1.60
2019-05-15T19:14:39.596Z,1.20
2019-05-15T19:16:50.516Z,1.23
2019-05-15T19:19:01.477Z,1.30
2019-05-15T19:21:12.643Z,1.40
2019-05-15T19:23:23.585Z,1.20
2019-05-15T19:25:34.539Z,1.10
2019-05-15T19:27:45.534Z,1.50
2019-05-15T19:29:56.434Z,1.37
2019-05-15T19:32:10.885Z,1.50
2019-05-15T19:34:20.076Z,1.20
2019-05-15T19:36:30.918Z,1.30
2019-05-15T19:38:41.809Z,1.37
2019-05-15T19:40:52.819Z,1.70
2019-05-15T19:43:04.106Z,1.27
2019-05-15T19:45:15.389Z,1.30
2019-05-15T19:47:26.428Z,1.27
2019-05-15T19:49:37.792Z,1.20
2019-05-15T19:51:48.794Z,1.23
2019-05-15T19:53:59.619Z,1.20
2019-05-15T19:56:10.641Z,1.00
2019-05-15T19:58:21.517Z,1.20
2019-05-15T20:00:32.829Z,1.10
2019-05-15T20:02:43.705Z,1.27
2019-05-15T20:04:54.538Z,1.13
2019-05-15T20:07:07.920Z,1.17
2019-05-15T20:09:18.725Z,1.40
2019-05-15T20:11:29.667Z,1.20
2019-05-15T20:13:40.520Z,1.30
2019-05-15T20:15:51.414Z,1.23
2019-05-15T20:18:02.416Z,1.07
2019-05-15T20:20:14.061Z,1.33
2019-05-15T20:22:25.050Z,1.67
2019-05-15T20:24:38.118Z,1.37
2019-05-15T20:26:48.804Z,1.30
2019-05-15T20:28:59.671Z,1.50
2019-05-15T20:31:10.549Z,1.40
2019-05-15T20:33:21.406Z,1.70
2019-05-15T20:35:32.393Z,1.67
2019-05-15T20:37:43.246Z,1.90
2019-05-15T20:39:54.482Z,1.97
2019-05-15T20:42:05.470Z,1.80
2019-05-15T20:44:18.252Z,2.07
2019-05-15T20:46:29.175Z,2.10
2019-05-15T20:48:40.036Z,1.50
2019-05-15T20:50:50.894Z,1.70
2019-05-15T20:53:01.761Z,2.07
2019-05-15T20:55:12.916Z,1.80
2019-05-15T20:57:23.893Z,1.80
2019-05-15T20:59:35.025Z,1.80
2019-05-15T21:01:48.286Z,1.87
2019-05-15T21:03:59.436Z,2.10
2019-05-15T21:06:12.415Z,2.03
2019-05-15T21:08:23.401Z,1.67
2019-05-15T21:10:34.301Z,2.00
2019-05-15T21:12:45.250Z,2.20
2019-05-15T21:14:58.127Z,2.00
2019-05-15T21:17:08.941Z,1.70
2019-05-15T21:19:20.214Z,1.67
2019-05-15T21:21:31.166Z,1.93
2019-05-15T21:23:42.070Z,1.77
2019-05-15T21:25:52.926Z,1.90
2019-05-15T21:28:03.914Z,1.90
2019-05-15T21:30:14.844Z,1.70
2019-05-15T21:32:28.104Z,1.83
2019-05-15T21:34:44.029Z,1.73
2019-05-15T21:36:52.179Z,1.70
2019-05-15T21:39:04.818Z,1.97
2019-05-15T21:41:15.771Z,1.70
2019-05-15T21:43:26.630Z,2.10
2019-05-15T21:45:39.715Z,1.80
2019-05-15T21:47:50.538Z,1.90
2019-05-15T21:50:01.506Z,2.10
2019-05-15T21:52:12.348Z,2.60
2019-05-15T21:54:23.223Z,1.80
2019-05-15T21:56:34.091Z,2.20
2019-05-15T21:58:45.483Z,1.93
2019-05-15T22:00:56.781Z,2.00
2019-05-15T22:03:07.855Z,1.80
2019-05-15T22:05:19.148Z,1.80
2019-05-15T22:07:30.286Z,1.80
2019-05-15T22:09:41.255Z,1.60
2019-05-15T22:11:52.629Z,1.80
2019-05-15T22:14:03.585Z,1.70
2019-05-15T22:16:14.873Z,2.07
2019-05-15T22:18:27.921Z,1.53
2019-05-15T22:20:38.930Z,1.53
2019-05-15T22:22:50.764Z,1.97
2019-05-15T22:25:02.921Z,1.80
2019-05-15T22:27:13.872Z,1.90
2019-05-15T22:29:24.818Z,2.03
2019-05-15T22:31:37.996Z,1.50
2019-05-15T22:33:48.738Z,1.77
2019-05-15T22:35:59.688Z,1.80
2019-05-15T22:38:10.733Z,1.80
2019-05-15T22:40:21.693Z,1.60
2019-05-15T22:42:32.631Z,1.80
2019-05-15T22:44:43.852Z,1.83
2019-05-15T22:46:54.787Z,1.73
2019-05-15T22:49:05.644Z,1.80
2019-05-15T22:51:18.409Z,1.87
2019-05-15T22:53:29.457Z,2.17
2019-05-15T22:55:40.726Z,1.90
2019-05-15T22:57:51.772Z,2.17
2019-05-15T23:00:04.716Z,1.93
2019-05-15T23:02:17.887Z,1.97
2019-05-15T23:04:28.808Z,2.00
2019-05-15T23:06:39.909Z,1.80
2019-05-15T23:08:50.846Z,2.47
2019-05-15T23:11:01.710Z,2.30
2019-05-15T23:13:12.553Z,2.23
2019-05-15T23:15:23.413Z,1.90
2019-05-15T23:17:34.688Z,2.30
2019-05-15T23:19:45.526Z,2.50
2019-05-15T23:21:58.916Z,2.47
2019-05-15T23:24:09.259Z,2.30
2019-05-15T23:26:20.127Z,2.43
2019-05-15T23:28:31.062Z,2.37
2019-05-15T23:30:41.941Z,2.40
2019-05-15T23:32:52.795Z,1.67
2019-05-15T23:35:03.824Z,2.30
2019-05-15T23:37:14.684Z,2.47
2019-05-15T23:39:25.640Z,3.17
2019-05-15T23:41:36.471Z,2.60
2019-05-15T23:43:48.267Z,2.67
2019-05-15T23:45:59.278Z,2.40
2019-05-15T23:48:10.224Z,2.00
2019-05-15T23:50:21.066Z,1.97
2019-05-15T23:52:31.923Z,2.43
2019-05-15T23:54:42.780Z,2.07
2019-05-15T23:56:53.654Z,2.10
2019-05-15T23:59:04.492Z,2.00
